Terminal Aerodrome Forecast
Issued by NWS

Home | Current Version | Previous Version | Text Only | Print | Product List | Glossary On
Versions: 1 2 3 4 5 6 7 8 9 10 11 12 13 14 15 16 17 18 19 20 21 22 23 24 25 26 27 28 29 30 31 32 33 34 35 36 37 38 39 40 41 42 43 44 45
000
FTUS46 KEKA 262333
TAFACV
TAF
KACV 262333Z 2700/2724 29007KT P6SM SCT015 OVC020
     FM270500 27004KT 5SM -DZ BR BKN010 OVC020
     FM270800 27005KT 3SM -DZ BR OVC010
     FM271200 16005KT 5SM BR VCSH SCT010 OVC020
     FM271800 23010KT P6SM VCSH BKN025 OVC040=

USA.gov is the U.S. government's official web portal to all federal, state and local government web resources and services.